This is the latest recevied weather packets stored in our database for station/object KC7UNY-13. If no packets are shown the sender has not sent any weather packets the latest 10 day(s).
| Time | Temp. | Humidity | Pressure | Rain* | Wind** | Luminosity | Snow |
|---|---|---|---|---|---|---|---|
| 1777398589 | 25° C | 25% | 1017 hPa | 0 mm | - | 709 W/m² | - |
| 1777398285 | 25° C | 25% | 1017 hPa | 0 mm | - | 700 W/m² | - |
| 1777397983 | 26.11° C | 24% | 1017 hPa | 0 mm | - | 691 W/m² | - |
| 1777397679 | 26.67° C | 23% | 1017 hPa | 0 mm | - | 681 W/m² | - |
| 1777397375 | 25.56° C | 26% | 1016.9 hPa | 0 mm | - | 670 W/m² | - |
| 1777397072 | 25° C | 25% | 1017.2 hPa | 0 mm | - | 659 W/m² | - |
| 1777396768 | 23.89° C | 27% | 1016.8 hPa | 0 mm | - | 647 W/m² | - |
| 1777396465 | 25° C | 24% | 1017.1 hPa | 0 mm | - | 636 W/m² | - |
| 1777396162 | 23.89° C | 26% | 1016.9 hPa | 0 mm | - | 622 W/m² | - |
| 1777395858 | 24.44° C | 25% | 1016.9 hPa | 0 mm | - | 610 W/m² | - |
| 1777395553 | 25° C | 25% | 1016.9 hPa | 0 mm | - | 599 W/m² | - |
| 1777395250 | 26.67° C | 24% | 1016.9 hPa | 0 mm | - | 585 W/m² | - |
| 1777394948 | 26.11° C | 24% | 1016.9 hPa | 0 mm | - | 573 W/m² | - |
| 1777394644 | 26.11° C | 24% | 1016.9 hPa | 0 mm | - | 558 W/m² | - |
| 1777394340 | 25.56° C | 25% | 1016.9 hPa | 0 mm | - | 543 W/m² | - |
| 1777394036 | 24.44° C | 26% | 1016.9 hPa | 0 mm | - | 531 W/m² | - |
| 1777393731 | 24.44° C | 26% | 1017 hPa | 0 mm | - | 513 W/m² | - |
| 1777393426 | 23.89° C | 26% | 1017 hPa | 0 mm | - | 497 W/m² | - |
| 1777393123 | 23.89° C | 26% | 1016.8 hPa | 0 mm | - | 482 W/m² | - |
| 1777392819 | 23.33° C | 26% | 1016.9 hPa | 0 mm | - | 463 W/m² | - |
| 1777392514 | 23.89° C | 26% | 1017 hPa | 0 mm | - | 450 W/m² | - |
| 1777392211 | 23.33° C | 27% | 1016.9 hPa | 0 mm | - | 434 W/m² | - |
| 1777391906 | 23.33° C | 27% | 1016.9 hPa | 0 mm | - | 417 W/m² | - |
| 1777391601 | 23.89° C | 26% | 1017 hPa | 0 mm | - | 400 W/m² | - |
| 1777391297 | 23.33° C | 27% | 1017 hPa | 0 mm | - | 385 W/m² | - |
* Rain latest hour (hover to see other rain measurements)
** Current wind speed in m/s (hover to see current wind gust speed)